Latest Weather Observations for Cummins Airport

IDS60801

Issued at 12:01 am CST Sunday 24 September 2017 (issued every 30 minutes, with the page automatically refreshed every 10 minutes)

About weather observations | Map of weather stations | Latest weather observations for SA | Other Formats
Station Details ID: 018217 Name: CUMMINS AERO Lat: -34.25 Lon: 135.71 Height: 60.11 m
Data from the previous 72 hours. | See also: Recent months at Cummins Airport
Date/Time
CST
Temp
°C
App
Temp
°C
Dew
Point
°C
Rel
Hum
%
Delta-T
°C
Wind Press
QNH
hPa
Press
MSL
hPa
Rain since
9am
mm
Dir  Spd
km/h
Gust
km/h
Spd
kts
Gust
kts
24/12:00am 12.8 8.1 9.3 79 1.8 WNW 24 35 13 19 1005.0 1005.0 0.0
 
Date/Time
CST
Temp
°C
App
Temp
°C
Dew
Point
°C
Rel
Hum
%
Delta-T
°C
Wind Press
QNH
hPa
Press
MSL
hPa
Rain since
9am
mm
Dir  Spd
km/h
Gust
km/h
Spd
kts
Gust
kts
23/11:30pm 12.9 7.4 9.0 77 2.0 WNW 28 37 15 20 1004.8 1004.8 0.0
23/11:00pm 12.8 8.7 8.7 76 2.1 WNW 20 33 11 18 1004.9 1004.9 0.0
23/10:30pm 13.4 7.8 8.7 73 2.4 WNW 28 46 15 25 1005.1 1005.1 0.0
23/10:26pm 13.6 8.1 9.1 74 2.3 WNW 28 46 15 25 1005.1 1005.1 0.0
23/10:00pm 13.4 9.5 10.8 84 1.4 WNW 22 32 12 17 1004.9 1004.9 0.0
23/09:30pm 13.4 9.1 10.9 85 1.3 WNW 24 35 13 19 1005.1 1005.1 0.0
23/09:00pm 13.3 9.6 11.5 89 1.0 NW 22 32 12 17 1005.0 1005.0 0.0
23/08:30pm 13.9 8.8 11.8 87 1.1 NW 30 41 16 22 1004.8 1004.8 0.0
23/08:00pm 14.3 9.2 12.0 86 1.2 NW 30 44 16 24 1004.8 1004.8 0.0
23/07:48pm 14.3 9.7 12.3 88 1.1 NW 28 50 15 27 1004.7 1004.7 0.0
23/07:30pm 13.5 11.1 12.6 94 0.5 NW 17 26 9 14 1004.6 1004.6 0.0
23/07:00pm 13.7 9.7 11.8 88 1.0 NW 24 32 13 17 1004.3 1004.3 0.0
23/06:30pm 14.9 9.7 11.7 81 1.7 NW 30 44 16 24 1004.0 1004.0 0.0
23/06:09pm 15.2 9.5 11.2 77 2.1 WNW 32 52 17 28 1003.7 1003.7 0.0
23/06:00pm 15.3 9.0 11.1 76 2.3 WNW 35 48 19 26 1003.7 1003.7 0.0
23/05:50pm 15.5 9.8 11.1 75 2.4 WNW 32 50 17 27 1003.6 1003.6 0.0
23/05:30pm 15.7 9.9 10.7 72 2.7 WNW 32 48 17 26 1003.5 1003.5 0.0
23/05:16pm 15.8 8.8 9.9 68 3.1 WNW 37 56 20 30 1003.2 1003.2 0.0
23/05:00pm 16.6 10.1 10.5 67 3.2 WNW 35 48 19 26 1003.1 1003.1 0.0
23/04:37pm 16.7 9.8 10.3 66 3.4 WNW 37 56 20 30 1002.9 1002.9 0.0
23/04:30pm 16.8 10.0 10.6 67 3.3 WNW 37 54 20 29 1002.9 1002.9 0.0
23/04:26pm 16.6 10.1 10.5 67 3.2 WNW 35 54 19 29 1002.9 1002.9 0.0
23/04:00pm 17.2 9.2 10.6 65 3.5 WNW 43 57 23 31 1002.5 1002.5 0.0
23/03:30pm 17.5 10.1 9.7 60 4.1 WNW 39 57 21 31 1002.5 1002.5 0.0
23/03:18pm 16.8 9.4 10.0 64 3.6 WNW 39 57 21 31 1002.5 1002.5 0.0
23/03:00pm 17.7 10.1 10.6 63 3.8 WNW 41 56 22 30 1002.3 1002.3 0.0
23/02:30pm 17.5 9.2 9.2 58 4.4 WNW 43 56 23 30 1002.3 1002.3 0.0
23/02:08pm 17.3 8.3 9.0 58 4.3 WNW 46 65 25 35 1002.2 1002.2 0.0
23/02:00pm 18.2 9.8 9.5 57 4.6 WNW 44 59 24 32 1002.3 1002.3 0.0
23/01:30pm 17.5 10.3 10.6 64 3.7 WNW 39 59 21 32 1002.0 1002.0 0.0
23/01:10pm 18.1 9.8 9.2 56 4.7 WNW 43 65 23 35 1001.6 1001.6 0.0
23/01:00pm 18.3 9.2 9.9 58 4.5 WNW 48 65 26 35 1001.7 1001.7 0.0
23/12:51pm 18.2 9.2 9.0 55 4.8 WNW 46 65 25 35 1001.6 1001.6 0.0
23/12:30pm 18.4 9.6 9.7 57 4.6 WNW 46 63 25 34 1001.7 1001.7 0.0
23/12:00pm 18.3 9.1 9.6 57 4.6 WNW 48 69 26 37 1001.3 1001.3 0.0
23/11:30am 18.2 9.9 10.1 59 4.3 WNW 44 65 24 35 1001.1 1001.1 0.0
23/11:00am 18.3 11.3 11.1 63 3.9 WNW 39 59 21 32 1000.8 1000.8 0.0
23/10:30am 18.4 9.5 10.5 60 4.3 WNW 48 69 26 37 1000.6 1000.6 0.0
23/10:07am 17.9 8.7 11.0 64 3.7 WNW 50 69 27 37 1000.3 1000.3 0.0
23/10:00am 17.8 8.6 10.9 64 3.7 WNW 50 65 27 35 1000.2 1000.2 0.0
23/09:30am 18.0 9.7 11.3 65 3.7 WNW 46 65 25 35 1000.0 1000.0 0.0
23/09:01am 18.0 12.4 12.2 69 3.2 NW 33 63 18 34 999.7 999.7 0.0
23/09:00am 18.1 12.9 12.8 71 3.0 NW 32 48 17 26 999.7 999.7 0.0
23/08:30am 16.4 12.6 13.5 83 1.6 NW 26 35 14 19 999.5 999.5 0.0
23/08:00am 14.2 12.3 14.2 100 0.0 NNW 17 24 9 13 998.7 998.7 0.0
23/07:30am 12.4 11.4 12.4 100 0.0 NNE 9 13 5 7 998.3 998.3 0.0
23/07:00am 11.1 10.1 11.1 100 0.0 N 7 11 4 6 998.7 998.7 0.0
23/06:30am 10.7 9.6 10.7 100 0.0 NNW 7 9 4 5 998.2 998.2 0.0
23/06:00am 11.0 10.0 11.0 100 0.0 N 7 9 4 5 997.6 997.6 0.0
23/05:30am 11.0 10.0 11.0 100 0.0 NE 7 13 4 7 997.0 996.9 0.0
23/05:00am 11.1 9.8 11.1 100 0.0 NNE 9 15 5 8 997.2 997.2 0.0
23/04:30am 12.1 12.0 12.1 100 0.0 E 4 9 2 5 997.1 997.1 0.0
23/04:00am 12.5 10.8 12.5 100 0.0 SSW 13 19 7 10 997.9 997.9 0.0
23/03:30am 12.8 11.6 12.8 100 0.0 SSW 11 17 6 9 997.4 997.4 0.0
23/03:00am 12.8 11.6 12.8 100 0.0 SSW 11 20 6 11 997.4 997.4 0.0
23/02:30am 13.1 11.9 12.8 98 0.2 SSW 11 24 6 13 998.1 998.1 0.0
23/02:00am 13.4 13.0 12.9 97 0.3 SSE 7 9 4 5 997.5 997.5 0.0
23/01:30am 14.1 12.2 13.1 94 0.6 S 15 17 8 9 999.0 999.0 0.0
23/01:00am 14.7 11.9 13.1 90 0.9 S 20 26 11 14 999.3 999.3 0.0
23/12:30am 15.4 12.1 12.7 84 1.5 S 22 57 12 31 999.8 999.8 0.0
23/12:20am 14.7 11.5 13.2 91 0.8 S 22 59 12 32 999.4 999.4 0.0
23/12:19am 14.6 12.0 13.3 92 0.7 SSE 19 43 10 23 999.6 999.6 0.0
23/12:00am 14.4 12.2 13.3 93 0.6 NE 17 22 9 12 998.2 998.2 0.0
 
Date/Time
CST
Temp
°C
App
Temp
°C
Dew
Point
°C
Rel
Hum
%
Delta-T
°C
Wind Press
QNH
hPa
Press
MSL
hPa
Rain since
9am
mm
Dir  Spd
km/h
Gust
km/h
Spd
kts
Gust
kts
22/11:30pm 14.3 12.6 13.7 96 0.3 NE 15 19 8 10 999.2 999.2 0.0
22/11:00pm 14.1 12.9 13.9 99 0.1 NE 13 19 7 10 999.9 999.9 0.0
22/10:30pm 13.6 12.3 13.6 100 0.0 E 13 20 7 11 1000.2 1000.2 0.0
22/10:00pm 12.9 11.0 12.9 100 0.0 ESE 15 19 8 10 1001.3 1001.3 0.0
22/09:30pm 11.4 11.8 11.2 99 0.1 CALM 0 0 0 0 1002.8 1002.8 0.0
22/09:00pm 12.5 11.5 12.3 99 0.1 NW 9 13 5 7 1003.6 1003.6 0.0
22/08:30pm 13.0 11.7 12.5 97 0.3 W 11 13 6 7 1003.6 1003.6 0.0
22/08:00pm 12.9 11.0 11.8 93 0.6 WSW 13 15 7 8 1003.0 1003.0 0.0
22/07:30pm 13.6 11.7 11.8 89 1.0 W 13 15 7 8 1002.0 1002.0 0.0
22/07:00pm 15.7 15.4 12.8 83 1.6 W 6 7 3 4 1001.7 1001.7 0.0
22/06:30pm 16.8 16.1 13.1 79 2.1 W 9 13 5 7 1001.9 1001.9 0.0
22/06:00pm 19.4 18.5 13.8 70 3.2 WSW 11 15 6 8 1001.8 1001.8 0.0
22/05:30pm 21.2 20.5 13.1 60 4.7 WNW 9 13 5 7 1001.7 1001.7 0.0
22/05:00pm 21.8 20.9 12.6 56 5.2 WNW 9 13 5 7 1001.7 1001.7 0.0
22/04:30pm 22.7 20.7 11.4 49 6.4 WNW 13 17 7 9 1001.8 1001.8 0.0
22/04:00pm 22.4 19.1 10.9 48 6.4 W 19 22 10 12 1002.0 1002.0 0.0
22/03:30pm 23.0 19.4 11.7 49 6.4 WNW 22 30 12 16 1002.2 1002.2 0.0
22/03:00pm 23.4 18.9 11.5 47 6.7 WNW 26 35 14 19 1002.5 1002.5 0.0
22/02:30pm 24.3 18.3 10.2 41 7.8 WNW 32 41 17 22 1002.6 1002.6 0.0
22/02:00pm 24.3 18.8 11.9 45 7.1 WNW 32 39 17 21 1002.6 1002.6 0.0
22/01:30pm 24.5 17.9 11.5 44 7.4 W 37 50 20 27 1002.8 1002.8 0.0
22/01:00pm 29.1 20.6 7.1 25 11.8 NW 41 63 22 34 1002.4 1002.4 0.0
22/12:30pm 28.2 20.6 7.4 27 11.2 NW 37 59 20 32 1002.9 1002.9 0.0
22/12:22pm 29.2 22.7 8.3 27 11.5 NW 32 50 17 27 1002.9 1002.9 0.0
22/12:00pm 28.5 23.8 10.7 33 10.2 NW 26 37 14 20 1003.2 1003.2 0.0
22/11:30am 27.6 24.0 12.0 38 9.1 NNW 22 33 12 18 1003.4 1003.4 0.0
22/11:00am 26.0 23.2 13.2 45 7.5 N 20 28 11 15 1003.6 1003.6 0.0
22/10:30am 24.7 21.5 12.0 45 7.3 N 20 28 11 15 1004.0 1004.0 0.0
22/10:00am 24.0 21.0 13.8 53 6.0 N 22 30 12 16 1004.0 1004.0 0.0
22/09:30am 21.8 19.0 12.6 56 5.3 NNE 19 26 10 14 1004.5 1004.5 0.0
22/09:00am 20.2 18.7 13.2 64 4.0 NNE 13 20 7 11 1004.7 1004.7 0.0
22/08:30am 17.7 14.6 11.7 68 3.3 NNE 19 22 10 12 1004.8 1004.8 0.0
22/08:00am 15.7 13.3 11.5 76 2.3 NNE 15 22 8 12 1004.9 1004.9 0.0
22/07:30am 13.5 10.5 10.7 83 1.5 NNE 17 20 9 11 1005.0 1005.0 0.0
22/07:00am 11.8 8.5 9.5 86 1.2 NE 17 22 9 12 1005.1 1005.1 0.0
22/06:30am 10.9 7.5 9.2 89 0.9 NE 17 22 9 12 1005.3 1005.3 0.0
22/06:00am 10.9 7.9 9.2 89 0.9 NE 15 19 8 10 1005.4 1005.4 0.0
22/05:30am 10.8 7.0 9.1 89 0.9 NE 19 22 10 12 1005.2 1005.2 0.0
22/05:00am 10.5 7.9 9.4 93 0.6 NE 13 17 7 9 1005.4 1005.4 0.0
22/04:30am 9.5 6.8 8.9 96 0.3 NE 13 17 7 9 1005.6 1005.6 0.0
22/04:00am 9.0 6.5 8.1 94 0.4 NNE 11 13 6 7 1005.7 1005.7 0.0
22/03:30am 9.6 7.2 8.5 93 0.5 NE 11 17 6 9 1005.9 1005.9 0.0
22/03:00am 10.2 7.5 9.0 92 0.6 NE 13 19 7 10 1006.0 1006.0 0.0
22/02:30am 10.9 8.2 8.8 87 1.0 NE 13 20 7 11 1006.6 1006.6 0.0
22/02:00am 10.6 7.3 8.0 84 1.3 NE 15 20 8 11 1007.1 1007.1 0.0
22/01:30am 10.1 9.5 7.2 82 1.4 CALM 0 6 0 3 1008.1 1008.1 0.0
22/01:00am 10.0 7.9 8.3 89 0.8 NE 9 13 5 7 1008.6 1008.6 0.0
22/12:30am 10.8 8.9 8.9 88 0.9 NE 9 15 5 8 1008.8 1008.8 0.0
22/12:00am 11.1 8.5 9.4 89 0.9 ENE 13 17 7 9 1009.0 1009.0 0.0
 
Date/Time
CST
Temp
°C
App
Temp
°C
Dew
Point
°C
Rel
Hum
%
Delta-T
°C
Wind Press
QNH
hPa
Press
MSL
hPa
Rain since
9am
mm
Dir  Spd
km/h
Gust
km/h
Spd
kts
Gust
kts
21/11:30pm 11.0 8.4 9.3 89 0.9 ENE 13 17 7 9 1009.5 1009.5 0.0
21/11:00pm 10.9 8.6 10.4 97 0.3 ENE 13 17 7 9 1010.0 1010.0 0.0
21/10:30pm 11.0 9.2 10.8 99 0.1 ENE 11 17 6 9 1010.3 1010.3 0.0
21/10:00pm 10.6 9.1 10.4 99 0.1 ENE 9 13 5 7 1010.6 1010.6 0.0
21/09:30pm 9.9 9.0 9.4 97 0.2 E 4 11 2 6 1010.7 1010.7 0.0
21/09:00pm 9.7 9.5 8.9 95 0.4 CALM 0 0 0 0 1011.2 1011.2 0.0
21/08:30pm 10.8 10.9 10.0 95 0.4 CALM 0 4 0 2 1011.2 1011.2 0.0
21/08:00pm 11.0 9.9 9.8 92 0.6 ENE 6 9 3 5 1011.0 1010.9 0.0
21/07:30pm 12.0 10.1 10.6 91 0.7 ENE 11 17 6 9 1010.4 1010.4 0.0
21/07:00pm 12.7 10.9 10.9 89 0.9 ESE 11 13 6 7 1010.5 1010.5 0.0
21/06:30pm 14.1 12.5 11.4 84 1.4 E 11 15 6 8 1010.3 1010.3 0.0
21/06:00pm 16.2 14.4 12.0 76 2.3 ESE 13 15 7 8 1009.9 1009.9 0.0
21/05:30pm 17.6 15.3 11.9 69 3.1 SE 15 19 8 10 1009.9 1009.9 0.0
21/05:00pm 18.7 15.6 8.9 53 5.1 SSW 15 19 8 10 1009.6 1009.6 0.0
21/04:30pm 19.1 15.7 9.0 52 5.3 SSW 17 20 9 11 1009.7 1009.7 0.0
21/04:00pm 19.8 16.1 10.0 53 5.3 SSW 20 28 11 15 1009.6 1009.6 0.0
21/03:30pm 20.6 17.2 10.7 53 5.4 WSW 19 24 10 13 1009.3 1009.3 0.0
21/03:00pm 20.8 17.6 10.0 50 5.8 WSW 17 20 9 11 1009.5 1009.5 0.0
21/02:30pm 21.2 18.6 9.4 47 6.3 W 13 22 7 12 1009.5 1009.5 0.0
21/02:00pm 20.6 19.3 10.1 51 5.7 WNW 7 20 4 11 1009.6 1009.6 0.0
21/01:30pm 20.4 18.9 11.9 58 4.8 W 11 19 6 10 1009.9 1009.9 0.0
21/01:00pm 20.3 19.4 11.5 57 4.9 S 7 15 4 8 1010.3 1010.3 0.0
21/12:30pm 19.6 18.9 12.1 62 4.2 SW 7 13 4 7 1010.7 1010.7 0.0
21/12:00pm 18.6 16.9 9.9 57 4.6 SSW 9 15 5 8 1011.2 1011.2 0.0
21/11:30am 18.4 16.7 10.0 58 4.5 SSE 9 13 5 7 1011.4 1011.4 0.0
21/11:00am 17.7 15.8 10.6 63 3.8 WSW 11 15 6 8 1011.7 1011.7 0.0
21/10:30am 17.2 15.6 11.7 70 3.0 WSW 11 20 6 11 1011.8 1011.8 0.0
21/10:00am 16.3 15.4 10.8 70 2.9 WSW 6 11 3 6 1011.8 1011.8 0.0
21/09:30am 15.8 14.9 10.8 72 2.7 SSW 6 11 3 6 1011.8 1011.8 0.0
21/09:00am 15.1 14.8 11.5 79 1.9 SSE 4 9 2 5 1011.6 1011.6 0.0
21/08:30am 14.3 13.2 11.8 85 1.3 S 9 15 5 8 1011.7 1011.7 0.0
21/08:00am 13.2 14.0 12.7 97 0.3 CALM 0 0 0 0 1011.6 1011.6 0.0
21/07:30am 11.7 12.2 11.7 100 0.0 CALM 0 2 0 1 1011.4 1011.4 0.0
21/07:00am 9.9 9.5 9.8 99 0.1 W 2 6 1 3 1011.5 1011.5 0.0
21/06:30am 10.9 9.8 10.7 99 0.1 WSW 7 9 4 5 1011.3 1011.3 0.0
21/06:00am 12.0 11.3 12.0 100 0.0 SW 7 9 4 5 1010.8 1010.8 0.0
21/05:30am 11.9 10.8 11.9 100 0.0 SW 9 13 5 7 1010.7 1010.7 0.0
21/05:00am 10.3 10.4 10.3 100 0.0 CALM 0 0 0 0 1010.3 1010.3 0.0
21/04:30am 8.3 6.6 8.3 100 0.0 N 7 7 4 4 1010.0 1010.0 0.0
21/04:00am 7.1 6.4 7.0 99 0.0 CALM 0 0 0 0 1009.6 1009.6 0.0
21/03:30am 7.1 6.3 6.7 97 0.2 CALM 0 0 0 0 1009.4 1009.4 0.0
21/03:00am 7.1 5.8 6.2 94 0.4 WNW 2 9 1 5 1009.5 1009.5 0.0
21/02:30am 7.7 7.0 6.8 94 0.4 CALM 0 0 0 0 1009.3 1009.3 0.0
21/02:00am 7.9 7.0 6.2 89 0.8 CALM 0 6 0 3 1009.2 1009.2 0.0
21/01:30am 9.2 8.2 7.3 88 0.9 WNW 2 7 1 4 1009.1 1009.1 0.0
21/01:00am 9.6 8.5 6.7 82 1.4 NW 2 15 1 8 1009.0 1009.0 0.0
21/12:30am 10.7 7.3 5.7 71 2.3 WNW 13 13 7 7 1008.9 1008.9 0.0

Other Formats:

Comma delimited format used in spreadsheet applications
http://www.bom.gov.au/fwo/IDS60801/IDS60801.95663.axf

JavaScript Object Notation format (JSON) in row-major order
http://www.bom.gov.au/fwo/IDS60801/IDS60801.95663.json